Time;durP1;ratioP1;P1;durP2;ratioP2;P2;SDS_P1;SDS_P2;PMS_P1;PMS_P2;Temp;Humidity;BMP_temperature;BMP_pressure;BME280_temperature;BME280_humidity;BME280_pressure;Samples;Min_cycle;Max_cycle;Signal;HPM_P1;HPM_P2
2021/07/12 00:00:00;;;;;;;7.80;4.35;;;;;;;22.55;68.52;99680.28;5119055;28;20054;-48
2021/07/12 00:02:25;;;;;;;4.90;3.78;;;;;;;22.51;68.58;99676.16;5118592;28;20080;-48
2021/07/12 00:04:51;;;;;;;4.30;3.80;;;;;;;22.50;68.51;99671.78;5119246;28;20389;-48
2021/07/12 00:07:17;;;;;;;6.85;4.78;;;;;;;22.43;68.73;99670.56;5118662;28;20079;-48
2021/07/12 00:09:43;;;;;;;6.82;4.65;;;;;;;22.41;68.89;99670.66;5118875;28;20069;-48
2021/07/12 00:12:09;;;;;;;5.75;5.18;;;;;;;22.35;69.04;99660.47;5118853;28;20047;-48
2021/07/12 00:14:35;;;;;;;5.43;4.93;;;;;;;22.26;69.39;99670.03;5118522;28;20338;-49
2021/07/12 00:17:00;;;;;;;6.28;3.88;;;;;;;22.29;68.79;99669.78;5118643;28;20054;-49
2021/07/12 00:19:26;;;;;;;4.50;4.10;;;;;;;22.25;69.00;99670.13;5118502;28;20058;-49
2021/07/12 00:21:52;;;;;;;4.57;4.18;;;;;;;22.27;68.92;99665.53;5118331;28;20052;-49
2021/07/12 00:24:20;;;;;;;6.25;3.90;;;;;;;22.27;68.81;99654.88;5118359;28;20051;-48
2021/07/12 00:26:47;;;;;;;7.70;4.35;;;;;;;22.29;68.76;99663.59;5118716;28;20044;-49
2021/07/12 00:29:13;;;;;;;4.53;3.38;;;;;;;22.26;68.59;99661.16;5118970;28;20047;-48
2021/07/12 00:31:39;;;;;;;5.55;4.30;;;;;;;22.13;69.03;99662.06;5118432;28;20065;-48
2021/07/12 00:34:05;;;;;;;3.92;3.53;;;;;;;22.15;68.75;99657.50;5118706;28;20039;-48
2021/07/12 00:36:31;;;;;;;6.35;3.80;;;;;;;22.16;68.91;99653.00;5118265;28;20472;-48
2021/07/12 00:38:57;;;;;;;4.55;3.35;;;;;;;22.15;68.63;99657.50;5118832;28;20059;-48
2021/07/12 00:41:23;;;;;;;5.15;3.45;;;;;;;22.15;68.57;99640.59;5116960;28;20055;-48
2021/07/12 00:43:49;;;;;;;5.15;3.58;;;;;;;22.10;68.76;99642.78;5118002;28;20391;-48
2021/07/12 00:46:15;;;;;;;4.28;3.60;;;;;;;22.07;68.93;99624.34;5117916;28;20101;-48
2021/07/12 00:48:42;;;;;;;3.65;3.33;;;;;;;22.01;69.22;99615.00;5117878;27;20066;-48
2021/07/12 00:51:09;;;;;;;4.15;3.40;;;;;;;21.96;69.22;99619.81;5117489;28;20043;-48
2021/07/12 00:53:36;;;;;;;3.70;3.40;;;;;;;21.95;69.25;99612.78;5117100;28;20046;-48
2021/07/12 00:56:03;;;;;;;5.63;3.85;;;;;;;21.92;69.55;99616.53;5117024;28;20127;-48
2021/07/12 00:58:29;;;;;;;7.40;5.55;;;;;;;21.88;69.47;99616.88;5116877;28;20051;-49
2021/07/12 01:00:59;;;;;;;7.35;5.70;;;;;;;21.88;69.60;99620.41;5117935;28;20043;-49
2021/07/12 01:03:25;;;;;;;20.00;16.55;;;;;;;21.84;69.60;99618.94;5116641;28;20055;-49
2021/07/12 01:05:52;;;;;;;29.13;21.70;;;;;;;21.82;69.48;99620.84;5117786;28;20399;-48
2021/07/12 01:08:18;;;;;;;17.80;13.48;;;;;;;21.79;69.56;99612.22;5117615;28;20089;-49
2021/07/12 01:11:03;;;;;;;9.50;8.48;;;;;;;21.76;69.45;99605.31;5118039;28;20044;-48
2021/07/12 01:14:12;;;;;;;8.93;7.80;;;;;;;21.67;69.86;99600.66;5100643;28;20043;-48
2021/07/12 01:17:06;;;;;;;7.90;5.72;;;;;;;21.61;69.90;99602.00;5072139;28;20079;-48
2021/07/12 01:19:54;;;;;;;5.40;4.55;;;;;;;21.60;69.77;99596.75;5100102;28;20468;-48
2021/07/12 01:22:54;;;;;;;5.00;4.10;;;;;;;21.59;69.96;99587.06;5117644;28;20058;-48
2021/07/12 01:25:57;;;;;;;6.95;4.55;;;;;;;21.57;70.24;99587.16;5117091;28;20440;-48
2021/07/12 01:28:39;;;;;;;6.68;4.80;;;;;;;21.55;70.18;99599.78;5117439;28;20044;-48
2021/07/12 01:31:34;;;;;;;4.47;3.97;;;;;;;21.51;70.37;99600.94;5116275;28;20392;-48
2021/07/12 01:34:11;;;;;;;3.67;3.38;;;;;;;21.50;70.14;99607.25;5116392;28;20043;-48
2021/07/12 01:36:41;;;;;;;4.82;3.97;;;;;;;21.47;70.06;99610.13;5116361;28;20051;-48
2021/07/12 01:39:12;;;;;;;3.83;3.47;;;;;;;21.48;69.87;99611.81;5116061;28;20078;-48
2021/07/12 01:41:47;;;;;;;3.83;3.35;;;;;;;21.48;70.02;99609.16;5117225;28;20066;-48
2021/07/12 01:44:19;;;;;;;4.70;3.45;;;;;;;21.46;70.05;99611.09;5115944;28;20044;-48
2021/07/12 01:46:48;;;;;;;4.97;3.88;;;;;;;21.43;70.07;99620.16;5099061;28;20044;-48
2021/07/12 01:49:28;;;;;;;3.67;3.17;;;;;;;21.46;70.25;99616.44;5099521;28;20067;-48
2021/07/12 01:52:27;;;;;;;5.15;3.97;;;;;;;21.40;70.45;99617.72;5099077;28;20052;-48
2021/07/12 01:55:06;;;;;;;4.20;3.85;;;;;;;21.32;70.41;99617.41;5115998;28;20047;-48
2021/07/12 01:58:04;;;;;;;4.50;3.92;;;;;;;21.33;70.58;99618.25;5115804;28;20484;-48
2021/07/12 02:00:31;;;;;;;4.97;4.45;;;;;;;21.25;71.01;99618.78;5102062;28;20044;-48
2021/07/12 02:03:01;;;;;;;5.72;4.45;;;;;;;21.24;70.87;99615.28;5099236;28;20453;-48
2021/07/12 02:05:32;;;;;;;5.18;4.68;;;;;;;21.21;71.42;99612.84;5115960;28;20066;-48
2021/07/12 02:08:00;;;;;;;4.78;4.30;;;;;;;21.17;71.55;99602.53;5115588;28;20418;-48
2021/07/12 02:10:29;;;;;;;5.00;4.53;;;;;;;21.12;71.60;99602.00;5115815;28;20054;-48
2021/07/12 02:12:59;;;;;;;7.20;4.68;;;;;;;21.07;72.17;99599.69;5115924;28;20063;-48
2021/07/12 02:15:25;;;;;;;5.50;4.95;;;;;;;21.00;72.61;99601.94;5098507;28;20044;-48
2021/07/12 02:17:56;;;;;;;5.95;4.82;;;;;;;20.98;72.37;99606.50;5115480;28;20372;-48
2021/07/12 02:20:32;;;;;;;6.30;5.60;;;;;;;20.87;73.24;99603.78;5100227;28;20039;-48
2021/07/12 02:22:59;;;;;;;6.05;5.10;;;;;;;20.88;72.57;99602.78;5098922;28;20436;-48
2021/07/12 02:25:27;;;;;;;6.15;4.60;;;;;;;20.83;72.77;99601.41;5098778;28;20043;-48
2021/07/12 02:27:53;;;;;;;6.53;4.68;;;;;;;20.80;72.50;99598.97;5115435;28;20054;-48
2021/07/12 02:30:19;;;;;;;7.90;5.65;;;;;;;20.73;73.28;99595.88;5115321;28;20052;-48
2021/07/12 02:32:46;;;;;;;7.25;5.00;;;;;;;20.66;73.38;99603.44;5115652;28;20127;-48
2021/07/12 02:35:12;;;;;;;12.57;5.65;;;;;;;20.59;73.63;99596.88;5115249;28;20058;-48
2021/07/12 02:37:41;;;;;;;5.90;5.20;;;;;;;20.56;73.94;99589.09;5098629;28;20066;-48
2021/07/12 02:40:11;;;;;;;6.55;5.85;;;;;;;20.52;74.15;99591.13;5098623;28;20054;-48
2021/07/12 02:42:37;;;;;;;6.43;5.57;;;;;;;20.47;74.04;99585.25;5115223;28;20055;-48
2021/07/12 02:45:04;;;;;;;6.82;6.15;;;;;;;20.42;74.30;99584.72;5115546;28;20044;-48
2021/07/12 02:47:34;;;;;;;8.45;6.60;;;;;;;20.42;74.23;99579.38;5115491;28;20048;-48
2021/07/12 02:50:01;;;;;;;6.43;5.80;;;;;;;20.36;74.76;99582.47;5115476;28;20155;-48
2021/07/12 02:52:30;;;;;;;7.93;5.38;;;;;;;20.30;75.39;99578.41;5116382;28;20155;-48
2021/07/12 02:55:02;;;;;;;5.20;4.70;;;;;;;20.31;75.11;99582.81;5098782;28;20048;-48
2021/07/12 02:57:31;;;;;;;7.90;5.37;;;;;;;20.23;75.71;99576.28;5115163;28;20051;-48
2021/07/12 03:00:00;;;;;;;5.93;5.43;;;;;;;20.24;75.59;99570.84;5098775;28;20086;-48
2021/07/12 03:02:29;;;;;;;6.53;5.82;;;;;;;20.18;76.34;99573.97;5114874;28;20097;-48
2021/07/12 03:04:56;;;;;;;6.03;5.43;;;;;;;20.19;76.08;99574.81;5119481;28;20071;-48
2021/07/12 03:07:25;;;;;;;5.47;4.97;;;;;;;20.19;76.01;99578.31;5119840;28;20437;-48
2021/07/12 03:09:52;;;;;;;5.60;4.82;;;;;;;20.18;76.23;99579.28;5119219;28;20139;-48
2021/07/12 03:12:46;;;;;;;9.15;6.57;;;;;;;20.12;77.39;99568.22;5102208;28;20051;-48
2021/07/12 03:15:12;;;;;;;;;;;;;;;19.90;78.25;99569.66;5087148;28;20397;-48
2021/07/12 03:17:44;;;;;;;5.05;4.55;;;;;;;20.02;77.74;99568.84;5119123;28;19931;-48
2021/07/12 03:20:10;;;;;;;7.88;6.15;;;;;;;20.08;77.59;99571.09;5118810;28;20126;-48
2021/07/12 03:22:37;;;;;;;7.75;5.65;;;;;;;20.15;77.33;99579.50;5085310;28;20036;-48
2021/07/12 03:25:05;;;;;;;6.60;6.00;;;;;;;20.22;77.05;99582.56;5101764;28;20055;-48
2021/07/12 03:27:31;;;;;;;7.85;5.40;;;;;;;20.20;77.35;99573.84;5118882;28;20047;-48
2021/07/12 03:30:00;;;;;;;8.18;5.13;;;;;;;20.24;77.18;99570.84;5102046;28;20065;-48
2021/07/12 03:32:27;;;;;;;7.55;5.53;;;;;;;20.33;77.17;99576.50;5118798;28;20054;-48
2021/07/12 03:34:58;;;;;;;8.90;5.80;;;;;;;20.36;76.96;99574.50;5118782;28;20047;-48
2021/07/12 03:37:24;;;;;;;6.10;5.47;;;;;;;20.43;76.91;99572.25;5118905;28;20391;-48
2021/07/12 03:39:50;;;;;;;6.55;5.82;;;;;;;20.46;77.09;99567.56;5118618;28;20063;-48
2021/07/12 03:42:17;;;;;;;7.45;5.60;;;;;;;20.48;77.25;99559.50;5101705;28;20048;-48
2021/07/12 03:44:44;;;;;;;7.72;5.50;;;;;;;20.51;77.10;99557.50;5101635;28;20047;-48
2021/07/12 03:47:24;;;;;;;6.63;5.72;;;;;;;20.61;76.55;99562.19;5102486;28;20059;-48
2021/07/12 03:49:51;;;;;;;6.38;5.68;;;;;;;20.63;76.93;99565.56;5118314;28;20036;-48
2021/07/12 03:52:17;;;;;;;6.97;5.10;;;;;;;20.64;77.00;99570.81;5101204;28;20040;-48
2021/07/12 03:54:43;;;;;;;5.80;4.63;;;;;;;20.73;76.80;99569.28;5118385;28;20100;-48
2021/07/12 03:57:08;;;;;;;8.30;5.75;;;;;;;20.75;76.82;99575.34;5117929;28;20048;-48
2021/07/12 03:59:34;;;;;;;8.82;5.45;;;;;;;20.86;76.26;99579.91;5119143;28;20062;-48
2021/07/12 04:02:00;;;;;;;6.88;5.07;;;;;;;20.90;76.32;99584.06;5118823;28;20040;-48
2021/07/12 04:04:26;;;;;;;5.00;4.50;;;;;;;20.95;76.17;99589.91;5119089;28;20063;-48
2021/07/12 04:06:52;;;;;;;4.85;4.30;;;;;;;20.99;75.70;99584.28;5118973;28;20048;-48
2021/07/12 04:09:18;;;;;;;5.30;4.38;;;;;;;21.07;75.60;99593.50;5118011;28;20440;-48
2021/07/12 04:11:44;;;;;;;5.70;5.05;;;;;;;21.14;75.53;99600.94;5118895;28;20043;-48
2021/07/12 04:14:10;;;;;;;5.57;5.07;;;;;;;21.20;75.32;99608.47;5117933;28;20108;-48
2021/07/12 04:16:35;;;;;;;9.68;5.10;;;;;;;21.27;75.02;99616.03;5117592;28;20043;-48
2021/07/12 04:19:01;;;;;;;5.65;5.15;;;;;;;21.26;75.01;99611.69;5118686;28;20051;-48
2021/07/12 04:21:27;;;;;;;7.25;5.85;;;;;;;21.28;74.78;99615.91;5118689;28;20052;-48
2021/07/12 04:23:52;;;;;;;6.28;5.10;;;;;;;21.35;74.56;99614.56;5118350;28;20078;-48
2021/07/12 04:26:18;;;;;;;7.70;6.55;;;;;;;21.40;74.04;99620.38;5118342;28;20039;-48
2021/07/12 04:28:44;;;;;;;8.40;5.18;;;;;;;21.52;74.30;99623.13;5118523;28;20052;-48
2021/07/12 04:31:13;;;;;;;7.05;5.07;;;;;;;21.59;73.98;99613.72;5118202;28;20051;-48
2021/07/12 04:33:38;;;;;;;5.68;5.18;;;;;;;21.61;73.59;99619.75;5118494;28;20044;-48
2021/07/12 04:36:04;;;;;;;7.82;5.80;;;;;;;21.67;73.57;99616.66;5118362;28;20047;-48
2021/07/12 04:38:30;;;;;;;6.40;5.05;;;;;;;21.68;73.42;99613.03;5118102;28;20429;-48
2021/07/12 04:40:56;;;;;;;8.13;4.78;;;;;;;21.74;73.26;99619.72;5118707;28;20387;-48
2021/07/12 04:43:24;;;;;;;6.13;5.25;;;;;;;21.79;73.20;99612.22;5117221;28;20040;-48
2021/07/12 04:45:50;;;;;;;7.03;4.78;;;;;;;21.76;72.86;99617.78;5118540;28;20054;-48
2021/07/12 04:48:15;;;;;;;8.63;6.20;;;;;;;21.68;72.92;99613.88;5117865;28;20456;-48
2021/07/12 04:50:41;;;;;;;7.05;5.03;;;;;;;21.75;72.95;99613.44;5117302;28;20047;-48
2021/07/12 04:53:08;;;;;;;7.03;5.30;;;;;;;21.84;72.75;99612.72;5117243;28;20119;-48
2021/07/12 04:55:34;;;;;;;6.75;4.72;;;;;;;21.93;72.60;99622.69;5117999;28;20078;-48
2021/07/12 04:58:00;;;;;;;10.82;5.40;;;;;;;22.03;72.55;99605.03;5117975;28;20052;-48
2021/07/12 05:00:25;;;;;;;6.38;4.90;;;;;;;22.17;72.40;99618.22;5117945;28;20383;-48
2021/07/12 05:02:51;;;;;;;6.50;5.68;;;;;;;22.16;71.40;99611.22;5117766;28;20059;-49
2021/07/12 05:05:17;;;;;;;10.15;5.63;;;;;;;22.15;71.32;99617.47;5117855;28;20059;-48
2021/07/12 05:07:43;;;;;;;8.00;5.65;;;;;;;22.24;71.19;99613.28;5117800;28;20130;-48
2021/07/12 05:10:10;;;;;;;8.00;5.07;;;;;;;22.35;70.91;99610.63;5117434;28;20334;-48
2021/07/12 05:12:37;;;;;;;5.30;4.80;;;;;;;22.57;71.22;99604.47;5117408;28;20047;-48
2021/07/12 05:15:03;;;;;;;5.65;4.72;;;;;;;22.81;70.76;99599.06;5118506;28;20109;-49
2021/07/12 05:17:29;;;;;;;5.22;4.68;;;;;;;22.99;70.17;99596.75;5117691;28;20437;-49
2021/07/12 05:19:54;;;;;;;5.43;4.90;;;;;;;23.25;69.86;99589.31;5117197;28;20126;-49
2021/07/12 05:22:25;;;;;;;10.32;4.55;;;;;;;23.50;68.59;99590.84;5117283;28;20092;-49
2021/07/12 05:24:51;;;;;;;7.25;4.90;;;;;;;23.64;67.22;99584.34;5117786;28;20036;-49
2021/07/12 05:27:17;;;;;;;4.20;3.80;;;;;;;23.72;67.57;99578.38;5117395;28;20043;-49
2021/07/12 05:29:43;;;;;;;3.92;3.55;;;;;;;23.87;67.18;99573.59;5117396;28;20483;-49
2021/07/12 05:32:09;;;;;;;6.38;3.88;;;;;;;24.07;67.03;99567.41;5117006;28;20074;-49
2021/07/12 05:34:35;;;;;;;4.97;4.13;;;;;;;24.22;66.42;99568.78;5117009;28;20365;-48
2021/07/12 05:37:00;;;;;;;4.60;4.10;;;;;;;24.33;65.96;99565.16;5117107;28;20047;-48
2021/07/12 05:39:26;;;;;;;4.72;3.80;;;;;;;24.44;65.56;99577.69;5116961;28;20072;-48
2021/07/12 05:41:52;;;;;;;4.47;3.95;;;;;;;24.51;64.79;99578.84;5116964;28;20047;-48
2021/07/12 05:44:17;;;;;;;5.85;4.05;;;;;;;24.62;64.65;99575.22;5116543;28;20081;-48
2021/07/12 05:46:43;;;;;;;4.60;4.00;;;;;;;24.98;64.40;99587.19;5116817;28;20074;-49
2021/07/12 05:49:09;;;;;;;4.88;4.18;;;;;;;25.09;63.10;99583.56;5116768;28;20062;-49
2021/07/12 05:51:35;;;;;;;5.65;4.53;;;;;;;25.03;62.31;99601.06;5117023;28;20047;-49
2021/07/12 05:54:00;;;;;;;4.72;3.83;;;;;;;25.06;63.02;99603.47;5116008;28;20365;-49
2021/07/12 05:56:26;;;;;;;11.77;3.80;;;;;;;25.01;62.42;99600.34;5116521;28;20066;-48
2021/07/12 05:58:52;;;;;;;7.15;4.15;;;;;;;25.00;62.30;99612.03;5116893;28;20047;-48
2021/07/12 06:01:18;;;;;;;5.43;3.90;;;;;;;25.00;62.69;99614.72;5116636;28;20441;-48
2021/07/12 06:03:43;;;;;;;5.43;4.85;;;;;;;24.92;62.36;99628.75;5116320;28;20059;-49
2021/07/12 06:06:12;;;;;;;5.40;4.25;;;;;;;24.75;62.61;99644.63;5116823;28;20073;-48
2021/07/12 06:08:38;;;;;;;4.72;4.18;;;;;;;24.67;63.06;99653.31;5098671;28;20445;-49
2021/07/12 06:11:04;;;;;;;5.47;4.88;;;;;;;24.55;63.14;99655.22;5116492;28;20063;-48
2021/07/12 06:13:30;;;;;;;6.45;4.57;;;;;;;24.42;62.74;99652.75;5116687;28;20051;-48
2021/07/12 06:15:55;;;;;;;7.43;4.70;;;;;;;24.22;63.28;99648.19;5116907;28;20177;-48
2021/07/12 06:18:21;;;;;;;6.07;4.35;;;;;;;24.08;63.23;99643.13;5116676;28;20361;-48
2021/07/12 06:20:47;;;;;;;4.78;4.28;;;;;;;24.01;63.32;99642.81;5116401;28;20047;-48
2021/07/12 06:23:13;;;;;;;8.55;3.65;;;;;;;23.89;63.97;99644.69;5116623;28;20063;-48
2021/07/12 06:25:39;;;;;;;7.00;3.90;;;;;;;23.84;64.40;99638.88;5116560;28;20043;-48
2021/07/12 06:28:05;;;;;;;4.32;3.60;;;;;;;23.82;64.66;99637.28;5116648;28;20044;-49
2021/07/12 06:30:31;;;;;;;9.02;4.70;;;;;;;23.77;64.98;99640.34;5116497;28;20449;-48
2021/07/12 06:32:57;;;;;;;4.82;3.95;;;;;;;23.77;65.40;99637.69;5116523;28;20051;-49
2021/07/12 06:35:22;;;;;;;7.32;4.10;;;;;;;23.80;65.35;99637.44;5116316;28;20403;-49
2021/07/12 06:37:48;;;;;;;9.88;4.00;;;;;;;23.86;65.56;99631.56;5116263;28;20035;-49
2021/07/12 06:40:16;;;;;;;8.48;4.05;;;;;;;23.88;65.30;99647.47;5120578;28;20047;-48
2021/07/12 06:42:42;;;;;;;7.90;4.18;;;;;;;23.79;65.39;99652.63;5120394;28;20039;-48
2021/07/12 06:45:07;;;;;;;6.85;3.90;;;;;;;23.73;65.59;99641.59;5120614;28;20048;-49
2021/07/12 06:47:34;;;;;;;8.50;4.28;;;;;;;23.65;66.45;99647.53;5120298;28;20073;-49
2021/07/12 06:50:04;;;;;;;6.43;3.88;;;;;;;23.59;66.44;99652.53;5119631;28;20047;-48
2021/07/12 06:52:30;;;;;;;9.25;4.25;;;;;;;23.58;66.66;99640.97;5120431;28;20051;-48
2021/07/12 06:54:56;;;;;;;9.77;4.10;;;;;;;23.52;67.31;99636.13;5119577;28;20047;-48
2021/07/12 06:57:23;;;;;;;12.02;4.72;;;;;;;23.50;68.17;99640.78;5120283;28;20078;-49
2021/07/12 06:59:50;;;;;;;13.18;5.55;;;;;;;23.46;68.33;99641.97;5120319;28;20052;-48
2021/07/12 07:02:16;;;;;;;7.78;4.53;;;;;;;23.45;68.28;99638.47;5119905;28;20052;-49
2021/07/12 07:04:44;;;;;;;9.18;5.07;;;;;;;23.40;68.35;99645.13;5119365;28;20334;-49
2021/07/12 07:07:11;;;;;;;9.32;4.07;;;;;;;23.41;68.94;99657.56;5119273;28;20044;-48
2021/07/12 07:09:37;;;;;;;7.38;5.70;;;;;;;23.36;68.38;99665.06;5120130;28;20090;-48
2021/07/12 07:12:03;;;;;;;7.60;5.47;;;;;;;23.25;68.78;99665.94;5120066;28;20048;-49
2021/07/12 07:14:38;;;;;;;7.93;4.68;;;;;;;23.13;69.30;99667.75;5119242;28;20112;-49
2021/07/12 07:17:04;;;;;;;9.18;4.85;;;;;;;23.03;69.19;99672.97;5119872;28;20395;-49
2021/07/12 07:19:29;;;;;;;9.32;5.60;;;;;;;22.91;69.83;99681.06;5119942;27;20048;-48
2021/07/12 07:21:56;;;;;;;6.40;5.15;;;;;;;22.79;70.13;99683.75;5118765;28;20426;-48
2021/07/12 07:24:35;;;;;;;8.68;6.43;;;;;;;22.66;70.39;99688.31;5118901;28;20047;-48
2021/07/12 07:27:01;;;;;;;7.00;5.88;;;;;;;22.55;70.82;99689.13;5119419;28;20070;-48
2021/07/12 07:29:27;;;;;;;7.93;6.32;;;;;;;22.50;71.17;99688.66;5120288;28;20044;-48
2021/07/12 07:31:52;;;;;;;8.43;6.15;;;;;;;22.39;72.21;99685.94;5119649;28;20119;-48
2021/07/12 07:34:19;;;;;;;13.95;5.80;;;;;;;22.32;72.28;99679.38;5119330;28;20434;-48
2021/07/12 07:36:44;;;;;;;15.60;7.55;;;;;;;22.28;72.69;99665.41;5118627;28;20050;-48
2021/07/12 07:39:11;;;;;;;8.18;5.82;;;;;;;22.22;73.09;99649.88;5118663;28;20383;-48
2021/07/12 07:41:37;;;;;;;10.45;5.93;;;;;;;22.15;73.31;99656.63;5119529;28;20439;-48
2021/07/12 07:44:04;;;;;;;8.30;5.40;;;;;;;22.11;73.12;99655.16;5119181;28;20121;-48
2021/07/12 07:46:31;;;;;;;7.60;4.68;;;;;;;22.12;73.45;99657.69;5119238;27;20047;-48
2021/07/12 07:48:56;;;;;;;16.63;5.82;;;;;;;22.15;73.43;99661.94;5119621;27;20035;-48
2021/07/12 07:51:22;;;;;;;7.38;5.15;;;;;;;22.17;73.79;99652.91;5118046;28;20078;-48
2021/07/12 07:53:48;;;;;;;7.00;5.20;;;;;;;22.18;74.01;99643.06;5118998;28;20124;-48
2021/07/12 07:56:14;;;;;;;8.90;5.50;;;;;;;22.20;73.92;99624.28;5118919;28;20043;-48
2021/07/12 07:58:40;;;;;;;8.48;5.47;;;;;;;22.20;73.41;99619.81;5118856;28;20052;-48
2021/07/12 08:01:05;;;;;;;7.32;4.53;;;;;;;22.20;73.73;99618.94;5119018;27;20050;-48
2021/07/12 08:03:31;;;;;;;9.23;5.28;;;;;;;22.18;73.95;99616.41;5118877;28;20058;-48
2021/07/12 08:05:57;;;;;;;7.75;5.13;;;;;;;22.15;73.73;99633.50;5118693;27;20050;-48
2021/07/12 08:08:23;;;;;;;7.18;5.43;;;;;;;22.14;74.02;99628.25;5118761;28;20130;-48
2021/07/12 08:10:49;;;;;;;7.53;4.95;;;;;;;22.11;73.83;99632.00;5118687;28;20379;-48
2021/07/12 08:13:14;;;;;;;6.28;4.88;;;;;;;22.10;74.00;99634.78;5118566;28;20059;-49
2021/07/12 08:15:40;;;;;;;12.48;6.88;;;;;;;22.04;74.42;99633.44;5118726;28;20044;-48
2021/07/12 08:18:06;;;;;;;7.35;5.85;;;;;;;21.98;74.95;99633.03;5118582;28;20036;-49
2021/07/12 08:20:32;;;;;;;7.30;5.45;;;;;;;21.99;75.44;99635.56;5118415;28;20127;-48
2021/07/12 08:22:58;;;;;;;10.85;6.68;;;;;;;21.97;75.99;99632.19;5117481;28;20134;-48
2021/07/12 08:25:24;;;;;;;6.88;5.20;;;;;;;21.97;76.29;99634.88;5118256;28;20055;-48
2021/07/12 08:27:50;;;;;;;8.68;6.00;;;;;;;21.88;76.62;99648.88;5118315;28;20067;-48
2021/07/12 08:30:16;;;;;;;6.78;4.90;;;;;;;21.94;76.58;99653.75;5118883;28;20130;-48
2021/07/12 08:32:42;;;;;;;10.27;5.50;;;;;;;21.93;76.71;99657.38;5118300;28;20051;-48
2021/07/12 08:35:09;;;;;;;6.63;4.97;;;;;;;22.02;76.26;99667.34;5117580;28;20133;-48
2021/07/12 08:37:35;;;;;;;8.13;5.90;;;;;;;22.05;75.77;99680.44;5118333;28;20047;-48
2021/07/12 08:40:01;;;;;;;6.68;5.32;;;;;;;22.05;75.52;99661.78;5117257;28;20103;-48
2021/07/12 08:42:27;;;;;;;11.85;6.45;;;;;;;22.05;76.20;99634.28;5117453;28;20070;-48
2021/07/12 08:44:53;;;;;;;7.65;5.53;;;;;;;22.03;76.52;99626.38;5117985;28;20445;-48
2021/07/12 08:47:19;;;;;;;5.68;5.10;;;;;;;22.06;76.58;99654.63;5117803;28;20055;-48
2021/07/12 08:49:44;;;;;;;9.05;5.60;;;;;;;22.04;77.01;99672.59;5117946;28;20449;-48
2021/07/12 08:52:10;;;;;;;6.13;5.18;;;;;;;22.02;76.87;99679.84;5117078;28;20036;-48
2021/07/12 08:54:37;;;;;;;7.63;6.45;;;;;;;21.98;77.11;99678.38;5118105;28;20117;-48
2021/07/12 08:57:03;;;;;;;8.07;6.75;;;;;;;21.92;76.63;99667.19;5117970;28;20122;-48
2021/07/12 08:59:34;;;;;;;12.13;8.02;;;;;;;21.76;77.29;99650.63;5117927;28;20050;-48
2021/07/12 09:02:13;;;;;;;9.75;6.65;;;;;;;21.64;78.96;99660.38;5116369;28;20054;-49
2021/07/12 09:04:41;;;;;;;6.85;5.22;;;;;;;21.64;79.09;99667.50;5117075;28;20597;-48
2021/07/12 09:07:11;;;;;;;8.38;5.63;;;;;;;21.66;78.98;99674.44;5117833;28;20070;-48
2021/07/12 09:09:37;;;;;;;6.43;5.55;;;;;;;21.69;78.94;99681.34;5117486;27;20051;-48
2021/07/12 09:12:41;;;;;;;8.00;5.53;;;;;;;21.67;78.89;99688.59;5117471;28;20046;-48
2021/07/12 09:15:12;;;;;;;6.35;5.28;;;;;;;21.64;78.68;99684.38;5093717;28;20449;-48
2021/07/12 09:17:39;;;;;;;7.43;6.20;;;;;;;21.68;78.92;99693.00;5117315;28;20433;-48
2021/07/12 09:20:07;;;;;;;10.63;6.88;;;;;;;21.70;79.25;99689.22;5117548;28;20055;-48
2021/07/12 09:22:34;;;;;;;12.10;6.78;;;;;;;21.69;78.87;99687.53;5116390;28;20100;-48
2021/07/12 09:25:02;;;;;;;10.32;6.40;;;;;;;21.72;78.75;99680.28;5117203;28;20460;-48
2021/07/12 09:27:29;;;;;;;8.27;6.20;;;;;;;21.75;78.80;99672.91;5116611;28;20066;-48
2021/07/12 09:29:59;;;;;;;8.25;6.43;;;;;;;21.74;78.89;99667.69;5117438;28;20051;-48
2021/07/12 09:32:26;;;;;;;8.38;6.68;;;;;;;21.73;79.71;99656.19;5118484;28;20051;-49
2021/07/12 09:35:19;;;;;;;11.82;7.00;;;;;;;21.77;79.73;99648.81;5116131;28;20441;-49
2021/07/12 09:37:48;;;;;;;7.22;5.85;;;;;;;21.79;79.88;99660.22;5111419;28;20051;-49
2021/07/12 09:40:17;;;;;;;8.55;5.90;;;;;;;21.83;79.69;99657.19;5117130;28;20134;-49
2021/07/12 09:42:48;;;;;;;5.95;5.10;;;;;;;21.89;79.66;99645.22;5117191;28;20071;-49
2021/07/12 09:45:16;;;;;;;7.35;4.85;;;;;;;21.92;79.74;99663.66;5116848;28;20058;-49
2021/07/12 09:47:44;;;;;;;9.77;5.60;;;;;;;21.91;79.26;99662.81;5117119;28;20039;-49
2021/07/12 09:50:17;;;;;;;8.73;6.70;;;;;;;21.90;79.37;99662.91;5115934;28;20043;-49
2021/07/12 09:52:53;;;;;;;9.98;6.63;;;;;;;21.87;79.37;99656.03;5116514;28;20046;-49
2021/07/12 09:55:22;;;;;;;9.20;6.40;;;;;;;21.86;79.19;99645.47;5116869;28;20044;-49
2021/07/12 09:57:49;;;;;;;9.40;6.45;;;;;;;21.84;79.04;99642.03;5116738;28;20067;-49
2021/07/12 10:00:17;;;;;;;10.38;7.10;;;;;;;21.85;78.51;99625.09;5116046;28;20047;-49
2021/07/12 10:02:46;;;;;;;7.45;6.35;;;;;;;21.83;77.92;99609.22;5116413;28;20073;-49
2021/07/12 10:05:13;;;;;;;7.35;6.05;;;;;;;21.85;78.02;99611.78;5115975;28;20047;-49
2021/07/12 10:07:39;;;;;;;8.95;5.72;;;;;;;21.83;77.99;99627.88;5116493;28;20047;-49
2021/07/12 10:10:16;;;;;;;9.45;6.70;;;;;;;21.76;77.76;99631.97;5116806;28;20351;-49
2021/07/12 10:12:42;;;;;;;11.13;7.68;;;;;;;21.62;78.64;99621.50;5116301;28;20050;-49
2021/07/12 10:15:09;;;;;;;7.97;6.15;;;;;;;21.61;78.78;99625.09;5116451;28;20047;-49
2021/07/12 10:17:35;;;;;;;8.23;5.18;;;;;;;21.54;78.60;99611.38;5115404;28;20050;-49
2021/07/12 10:20:01;;;;;;;8.30;5.35;;;;;;;21.54;78.53;99603.38;5116388;28;20036;-49
2021/07/12 10:22:33;;;;;;;7.55;4.32;;;;;;;21.59;78.75;99608.38;5116701;28;20048;-49
2021/07/12 10:25:10;;;;;;;4.82;3.70;;;;;;;21.65;77.99;99600.78;5115887;28;20116;-49
2021/07/12 10:27:47;;;;;;;4.65;4.03;;;;;;;21.72;78.31;99587.84;5116675;28;20039;-49
2021/07/12 10:30:25;;;;;;;6.95;3.92;;;;;;;21.74;77.35;99574.41;5116324;28;20036;-49
2021/07/12 10:32:55;;;;;;;6.95;4.28;;;;;;;21.72;77.35;99574.53;5116278;28;20104;-49
2021/07/12 10:35:41;;;;;;;6.93;4.07;;;;;;;21.77;78.19;99558.19;5116550;28;20048;-49
2021/07/12 10:38:08;;;;;;;4.15;3.63;;;;;;;21.76;77.79;99554.66;5102283;28;20084;-49
2021/07/12 10:40:50;;;;;;;5.18;3.15;;;;;;;21.88;77.58;99552.91;5116161;28;20048;-49
2021/07/12 10:43:35;;;;;;;4.55;3.33;;;;;;;21.73;76.06;99562.91;5115418;28;20035;-49
2021/07/12 10:46:01;;;;;;;3.55;2.97;;;;;;;21.77;76.81;99567.03;5115247;28;20039;-49
2021/07/12 10:48:37;;;;;;;3.65;3.05;;;;;;;21.93;76.52;99553.38;5116383;28;20047;-49
2021/07/12 10:51:22;;;;;;;3.20;2.45;;;;;;;21.97;73.50;99552.22;5116431;28;20326;-49
2021/07/12 10:54:00;;;;;;;3.22;2.13;;;;;;;22.11;74.60;99551.16;5116409;28;20043;-49
2021/07/12 10:57:02;;;;;;;2.15;1.95;;;;;;;22.16;72.97;99543.66;5115118;28;20331;-49
2021/07/12 10:59:34;;;;;;;2.42;2.22;;;;;;;22.30;73.65;99543.47;5102674;28;20048;-49
2021/07/12 11:02:02;;;;;;;2.70;1.80;;;;;;;22.55;74.29;99547.69;5115551;28;20460;-49
2021/07/12 11:04:32;;;;;;;3.35;2.63;;;;;;;22.76;74.61;99537.16;5115992;28;20039;-49
2021/07/12 11:06:58;;;;;;;2.85;2.33;;;;;;;22.85;73.93;99535.56;5116494;28;20043;-49
2021/07/12 11:10:00;;;;;;;4.32;2.47;;;;;;;22.98;73.15;99538.16;5115782;28;20479;-49
2021/07/12 11:12:29;;;;;;;2.28;1.60;;;;;;;23.06;73.05;99533.88;5114014;28;20043;-49
2021/07/12 11:15:14;;;;;;;1.90;1.60;;;;;;;23.17;70.84;99542.81;5095985;28;20047;-49
2021/07/12 11:17:52;;;;;;;1.85;1.40;;;;;;;23.21;69.90;99536.28;5116005;28;20063;-49
2021/07/12 11:20:47;;;;;;;3.53;2.25;;;;;;;23.24;70.44;99544.03;5114992;28;20093;-49
2021/07/12 11:23:38;;;;;;;1.90;1.80;;;;;;;23.31;69.83;99551.41;5116343;28;20040;-49
2021/07/12 11:26:21;;;;;;;3.30;1.73;;;;;;;23.36;69.89;99547.50;5119309;28;20108;-49
2021/07/12 11:28:48;;;;;;;1.95;1.50;;;;;;;23.41;69.84;99556.00;5118733;28;20054;-49
2021/07/12 11:31:39;;;;;;;1.98;1.77;;;;;;;23.48;69.85;99562.53;5118892;28;20058;-48
2021/07/12 11:34:06;;;;;;;3.90;1.95;;;;;;;23.53;69.52;99568.38;5119397;28;20405;-49
2021/07/12 11:36:31;;;;;;;3.72;2.15;;;;;;;23.56;68.90;99563.63;5119571;28;20386;-49
2021/07/12 11:38:57;;;;;;;6.72;3.50;;;;;;;23.52;68.94;99570.16;5120395;28;20051;-49
2021/07/12 11:41:24;;;;;;;5.63;3.15;;;;;;;23.56;68.87;99568.97;5119503;28;20531;-49